createdAt,value
2018-11-03T00:02:17.432Z,8.20
2018-11-03T00:05:29.084Z,8.20
2018-11-03T00:08:40.253Z,8.20
2018-11-03T00:11:51.907Z,8.20
2018-11-03T00:15:03.845Z,8.30
2018-11-03T00:18:15.856Z,8.30
2018-11-03T00:21:27.741Z,8.30
2018-11-03T00:24:39.600Z,8.30
2018-11-03T00:27:51.233Z,8.40
2018-11-03T00:31:02.301Z,8.30
2018-11-03T00:34:14.233Z,8.30
2018-11-03T00:37:25.910Z,8.10
2018-11-03T00:40:37.769Z,8.00
2018-11-03T00:43:49.674Z,8.00
2018-11-03T00:47:00.874Z,8.00
2018-11-03T00:50:14.451Z,7.90
2018-11-03T00:53:25.529Z,7.90
2018-11-03T00:56:37.165Z,7.80
2018-11-03T00:59:48.924Z,7.80
2018-11-03T01:02:59.891Z,7.80
2018-11-03T01:06:11.901Z,7.80
2018-11-03T01:09:23.706Z,7.80
2018-11-03T01:12:35.169Z,7.90
2018-11-03T01:15:46.663Z,8.00
2018-11-03T01:18:58.553Z,8.00
2018-11-03T01:22:10.333Z,8.00
2018-11-03T01:25:22.742Z,8.10
2018-11-03T01:28:34.099Z,8.00
2018-11-03T01:31:46.138Z,8.00
2018-11-03T01:34:58.120Z,8.00
2018-11-03T01:38:10.120Z,8.10
2018-11-03T01:41:22.165Z,8.10
2018-11-03T01:44:33.713Z,8.10
2018-11-03T01:47:45.578Z,8.10
2018-11-03T01:50:57.588Z,8.10
2018-11-03T01:54:09.441Z,8.10
2018-11-03T01:57:21.527Z,8.10
2018-11-03T02:00:33.173Z,8.00
2018-11-03T02:03:45.236Z,8.00
2018-11-03T02:06:57.107Z,7.90
2018-11-03T02:10:11.597Z,7.90
2018-11-03T02:13:22.937Z,7.70
2018-11-03T02:16:34.634Z,7.80
2018-11-03T02:19:46.524Z,7.70
2018-11-03T02:22:58.101Z,7.70
2018-11-03T02:26:10.338Z,7.70
2018-11-03T02:29:21.821Z,7.70
2018-11-03T02:32:33.812Z,7.70
2018-11-03T02:35:46.526Z,7.80
2018-11-03T02:38:58.643Z,7.70
2018-11-03T02:42:09.681Z,7.70
2018-11-03T02:45:21.660Z,7.70
2018-11-03T02:48:33.354Z,7.70
2018-11-03T02:51:45.167Z,7.80
2018-11-03T02:54:57.182Z,7.70
2018-11-03T02:58:09.088Z,7.70
2018-11-03T03:01:21.222Z,7.70
2018-11-03T03:04:32.760Z,7.60
2018-11-03T03:07:44.236Z,7.70
2018-11-03T03:10:55.622Z,7.70
2018-11-03T03:14:08.013Z,7.70
2018-11-03T03:17:19.539Z,7.70
2018-11-03T03:20:31.449Z,7.70
2018-11-03T03:23:43.363Z,7.70
2018-11-03T03:26:54.842Z,7.70
2018-11-03T03:30:07.130Z,7.60
2018-11-03T03:33:19.405Z,7.60
2018-11-03T03:36:31.254Z,7.60
2018-11-03T03:39:43.234Z,7.60
2018-11-03T03:42:55.027Z,7.60
2018-11-03T03:46:07.119Z,7.60
2018-11-03T03:49:19.024Z,7.60
2018-11-03T03:52:31.147Z,7.70
2018-11-03T03:55:43.921Z,7.70
2018-11-03T03:58:55.857Z,7.70
2018-11-03T04:02:07.861Z,7.70
2018-11-03T04:05:19.692Z,7.60
2018-11-03T04:08:31.499Z,7.60
2018-11-03T04:11:43.494Z,7.60
2018-11-03T04:14:54.996Z,7.60
2018-11-03T04:18:07.237Z,7.60
2018-11-03T04:21:22.696Z,7.50
2018-11-03T04:24:35.143Z,7.60
2018-11-03T04:27:47.116Z,7.60
2018-11-03T04:30:58.212Z,7.50
2018-11-03T04:34:09.901Z,7.60
2018-11-03T04:37:21.300Z,7.50
2018-11-03T04:40:32.677Z,7.40
2018-11-03T04:43:43.820Z,7.40
2018-11-03T04:46:55.655Z,7.50
2018-11-03T04:50:07.879Z,7.60
2018-11-03T04:53:19.714Z,7.60
2018-11-03T04:56:31.542Z,7.50
2018-11-03T04:59:43.361Z,7.40
2018-11-03T05:02:55.478Z,7.50
2018-11-03T05:06:07.001Z,7.50
2018-11-03T05:09:19.181Z,7.50
2018-11-03T05:12:30.779Z,7.50
2018-11-03T05:15:42.722Z,7.50
2018-11-03T05:18:53.950Z,7.40
2018-11-03T05:22:05.498Z,7.40
2018-11-03T05:25:17.019Z,7.40
2018-11-03T05:28:29.195Z,7.40
2018-11-03T05:31:40.574Z,7.40
2018-11-03T05:34:52.449Z,7.30
2018-11-03T05:38:04.296Z,7.30
2018-11-03T05:41:16.088Z,7.30
2018-11-03T05:44:28.829Z,7.30
2018-11-03T05:47:39.803Z,7.40
2018-11-03T05:50:50.799Z,7.30
2018-11-03T05:54:02.776Z,7.40
2018-11-03T05:57:14.528Z,7.30
2018-11-03T06:00:27.750Z,7.40
2018-11-03T06:03:39.357Z,7.40
2018-11-03T06:06:50.676Z,7.30
2018-11-03T06:10:02.357Z,7.30
2018-11-03T06:13:14.183Z,7.30
2018-11-03T06:16:25.870Z,7.30
2018-11-03T06:19:37.771Z,7.20
2018-11-03T06:22:49.300Z,7.20
2018-11-03T06:26:00.870Z,7.20
2018-11-03T06:29:12.973Z,7.20
2018-11-03T06:32:24.597Z,7.20
2018-11-03T06:35:37.120Z,7.20
2018-11-03T06:38:48.584Z,7.20
2018-11-03T06:42:00.331Z,7.20
2018-11-03T06:45:12.248Z,7.00
2018-11-03T06:48:24.160Z,7.00
2018-11-03T06:51:35.231Z,7.10
2018-11-03T06:54:47.225Z,7.20
2018-11-03T06:57:59.213Z,7.30
2018-11-03T07:01:10.998Z,7.30
2018-11-03T07:04:22.726Z,7.30
2018-11-03T07:07:33.746Z,7.20
2018-11-03T07:10:44.946Z,7.20
2018-11-03T07:13:56.567Z,7.20
2018-11-03T07:17:08.529Z,7.20
2018-11-03T07:20:20.252Z,7.30
2018-11-03T07:23:32.477Z,7.40
2018-11-03T07:26:43.885Z,7.30
2018-11-03T07:29:56.354Z,7.30
2018-11-03T07:33:07.686Z,7.30
2018-11-03T07:36:19.832Z,7.40
2018-11-03T07:39:32.148Z,7.50
2018-11-03T07:42:45.028Z,7.50
2018-11-03T07:45:57.044Z,7.60
2018-11-03T07:49:09.260Z,7.50
2018-11-03T07:52:20.938Z,7.70
2018-11-03T07:55:32.940Z,7.70
2018-11-03T07:58:44.706Z,7.80
2018-11-03T08:01:56.689Z,7.80
2018-11-03T08:05:09.738Z,7.80
2018-11-03T08:08:21.991Z,7.90
2018-11-03T08:11:33.108Z,7.90
2018-11-03T08:14:44.896Z,7.80
2018-11-03T08:17:56.953Z,7.90
2018-11-03T08:21:08.811Z,7.80
2018-11-03T08:24:21.240Z,7.90
2018-11-03T08:27:32.793Z,8.00
2018-11-03T08:30:44.538Z,8.10
2018-11-03T08:33:56.559Z,8.10
2018-11-03T08:37:08.107Z,8.10
2018-11-03T08:40:19.999Z,8.10
2018-11-03T08:43:31.770Z,8.00
2018-11-03T08:46:43.779Z,8.10
2018-11-03T08:49:55.805Z,8.30
2018-11-03T08:53:07.822Z,8.30
2018-11-03T08:56:20.208Z,8.30
2018-11-03T08:59:31.978Z,8.30
2018-11-03T09:02:44.497Z,8.30
2018-11-03T09:05:55.849Z,8.30
2018-11-03T09:09:07.982Z,8.20
2018-11-03T09:12:19.039Z,8.30
2018-11-03T09:15:30.181Z,8.40
2018-11-03T09:18:41.850Z,8.50
2018-11-03T09:22:06.979Z,8.50
2018-11-03T09:25:18.601Z,8.50
2018-11-03T09:28:29.873Z,8.60
2018-11-03T09:31:41.984Z,8.70
2018-11-03T09:34:53.662Z,8.80
2018-11-03T09:38:06.505Z,8.80
2018-11-03T09:41:18.215Z,8.90
2018-11-03T09:44:30.185Z,9.00
2018-11-03T09:47:42.352Z,9.10
2018-11-03T09:50:53.673Z,9.10
2018-11-03T09:54:05.632Z,9.10
2018-11-03T09:57:17.702Z,9.20
2018-11-03T10:00:29.759Z,9.20
2018-11-03T10:03:42.462Z,9.00
2018-11-03T10:06:54.613Z,9.10
2018-11-03T10:10:11.468Z,9.10
2018-11-03T10:13:23.080Z,9.20
2018-11-03T10:16:34.953Z,9.30
2018-11-03T10:19:46.667Z,9.30
2018-11-03T10:22:58.755Z,9.30
2018-11-03T10:26:10.799Z,9.30
2018-11-03T10:29:22.552Z,9.30
2018-11-03T10:32:33.764Z,9.40
2018-11-03T10:35:45.366Z,9.40
2018-11-03T10:38:56.892Z,9.30
2018-11-03T10:42:08.914Z,9.30
2018-11-03T10:45:20.825Z,9.40
2018-11-03T10:48:32.876Z,9.40
2018-11-03T10:51:44.561Z,9.50
2018-11-03T10:54:56.268Z,9.50
2018-11-03T10:58:08.562Z,9.60
2018-11-03T11:01:25.384Z,9.60
2018-11-03T11:04:41.743Z,9.70
2018-11-03T11:07:58.713Z,9.80
2018-11-03T11:13:20.702Z,9.80
2018-11-03T11:16:32.623Z,9.90
2018-11-03T11:19:44.584Z,9.90
2018-11-03T11:22:56.146Z,9.90
2018-11-03T11:26:08.548Z,10.00
2018-11-03T11:29:20.164Z,9.90
2018-11-03T11:32:31.856Z,9.90
2018-11-03T11:35:43.852Z,9.90
2018-11-03T11:38:55.157Z,10.00
2018-11-03T11:42:06.789Z,10.00
2018-11-03T11:45:18.616Z,9.80
2018-11-03T11:48:30.133Z,9.80
2018-11-03T11:51:41.497Z,9.70
2018-11-03T11:54:53.096Z,9.70
2018-11-03T11:58:05.286Z,9.60
2018-11-03T12:01:16.934Z,9.60
2018-11-03T12:04:28.974Z,9.60
2018-11-03T12:07:40.544Z,9.60
2018-11-03T12:10:53.134Z,9.60
2018-11-03T12:14:04.784Z,9.60
2018-11-03T12:17:16.897Z,9.60
2018-11-03T12:20:28.456Z,9.60
2018-11-03T12:23:40.306Z,9.60
2018-11-03T12:26:52.241Z,9.60
2018-11-03T12:30:04.391Z,9.60
2018-11-03T12:33:16.190Z,9.50
2018-11-03T12:36:28.098Z,9.60
2018-11-03T12:39:39.737Z,9.50
2018-11-03T12:42:50.970Z,9.50
2018-11-03T12:46:02.900Z,9.50
2018-11-03T12:49:14.853Z,9.50
2018-11-03T12:52:27.372Z,9.50
2018-11-03T12:55:38.387Z,9.50
2018-11-03T12:58:50.372Z,9.40
2018-11-03T13:02:01.974Z,9.50
2018-11-03T13:05:14.433Z,9.50
2018-11-03T13:08:26.542Z,9.50
2018-11-03T13:11:38.602Z,9.50
2018-11-03T13:14:50.419Z,9.40
2018-11-03T13:18:02.215Z,9.50
2018-11-03T13:21:14.015Z,9.60
2018-11-03T13:24:25.976Z,9.60
2018-11-03T13:27:37.197Z,9.60
2018-11-03T13:30:48.973Z,9.50
2018-11-03T13:34:00.489Z,9.50
2018-11-03T13:37:11.767Z,9.50
2018-11-03T13:40:23.631Z,9.50
2018-11-03T13:43:35.634Z,9.50
2018-11-03T13:46:47.454Z,9.60
2018-11-03T13:49:59.457Z,9.60
2018-11-03T13:53:10.792Z,9.60
2018-11-03T13:56:22.691Z,9.60
2018-11-03T13:59:34.537Z,9.60
2018-11-03T14:02:46.696Z,9.60
2018-11-03T14:05:58.574Z,9.60
2018-11-03T14:09:11.297Z,9.60
2018-11-03T14:12:22.578Z,9.60
2018-11-03T14:15:34.147Z,9.60
2018-11-03T14:18:46.429Z,9.60
2018-11-03T14:21:58.227Z,9.60
2018-11-03T14:25:11.808Z,9.60
2018-11-03T14:28:23.835Z,9.60
2018-11-03T14:31:35.614Z,9.60
2018-11-03T14:34:48.382Z,9.50
2018-11-03T14:38:00.262Z,9.50
2018-11-03T14:41:12.225Z,9.50
2018-11-03T14:44:24.198Z,9.50
2018-11-03T14:47:35.693Z,9.50
2018-11-03T14:50:47.637Z,9.50
2018-11-03T14:54:01.981Z,9.50
2018-11-03T14:57:13.112Z,9.50
2018-11-03T15:00:24.548Z,9.50
2018-11-03T15:03:36.300Z,9.40
2018-11-03T15:06:49.957Z,9.50
2018-11-03T15:10:01.165Z,9.40
2018-11-03T15:13:13.113Z,9.50
2018-11-03T15:16:24.884Z,9.50
2018-11-03T15:19:36.841Z,9.40
2018-11-03T15:22:48.903Z,9.30
2018-11-03T15:26:00.288Z,9.40
2018-11-03T15:29:12.850Z,9.30
2018-11-03T15:32:23.868Z,9.30
2018-11-03T15:35:36.411Z,9.30
2018-11-03T15:38:47.744Z,9.30
2018-11-03T15:41:59.688Z,9.30
2018-11-03T15:45:15.966Z,9.30
2018-11-03T15:48:27.711Z,9.30
2018-11-03T15:51:39.648Z,9.30
2018-11-03T15:54:51.928Z,9.20
2018-11-03T15:58:04.082Z,9.20
2018-11-03T16:01:15.279Z,9.20
2018-11-03T16:04:26.900Z,9.20
2018-11-03T16:07:38.027Z,9.10
2018-11-03T16:10:49.598Z,9.10
2018-11-03T16:14:00.679Z,9.10
2018-11-03T16:17:12.560Z,9.00
2018-11-03T16:20:24.997Z,9.00
2018-11-03T16:23:36.144Z,9.00
2018-11-03T16:26:47.773Z,9.00
2018-11-03T16:29:59.427Z,9.00
2018-11-03T16:33:12.955Z,9.00
2018-11-03T16:36:25.739Z,9.00
2018-11-03T16:39:38.212Z,8.90
2018-11-03T16:42:50.953Z,9.00
2018-11-03T16:46:02.490Z,9.00
2018-11-03T16:49:18.072Z,9.00
2018-11-03T16:52:30.343Z,9.00
2018-11-03T16:55:42.775Z,9.10
2018-11-03T16:58:54.210Z,9.00
2018-11-03T17:02:07.104Z,9.00
2018-11-03T17:05:19.834Z,9.00
2018-11-03T17:08:32.131Z,8.90
2018-11-03T17:11:48.880Z,8.90
2018-11-03T17:15:02.677Z,8.90
2018-11-03T17:18:14.914Z,8.90
2018-11-03T17:21:27.894Z,8.90
2018-11-03T17:24:39.509Z,8.90
2018-11-03T17:27:51.041Z,8.80
2018-11-03T17:31:02.810Z,8.80
2018-11-03T17:34:14.570Z,8.80
2018-11-03T17:37:34.655Z,8.80
2018-11-03T17:40:46.852Z,8.80
2018-11-03T17:43:59.660Z,8.80
2018-11-03T17:47:11.341Z,8.80
2018-11-03T17:50:23.157Z,8.80
2018-11-03T17:53:34.862Z,8.80
2018-11-03T17:56:47.468Z,8.80
2018-11-03T17:59:58.908Z,8.80
2018-11-03T18:03:10.804Z,8.80
2018-11-03T18:06:22.250Z,8.80
2018-11-03T18:09:34.268Z,8.70
2018-11-03T18:12:55.422Z,8.80
2018-11-03T18:16:08.409Z,8.80
2018-11-03T18:19:19.908Z,8.70
2018-11-03T18:22:31.739Z,8.80
2018-11-03T18:25:44.396Z,8.70
2018-11-03T18:28:57.550Z,8.80
2018-11-03T18:32:09.323Z,8.80
2018-11-03T18:35:21.606Z,8.70
2018-11-03T18:38:32.863Z,8.70
2018-11-03T18:41:44.657Z,8.70
2018-11-03T18:44:56.709Z,8.70
2018-11-03T18:48:08.991Z,8.70
2018-11-03T18:51:20.648Z,8.70
2018-11-03T18:54:32.943Z,8.70
2018-11-03T18:57:45.492Z,8.80
2018-11-03T19:00:57.140Z,8.80
2018-11-03T19:04:11.304Z,8.80
2018-11-03T19:07:23.188Z,8.80
2018-11-03T19:10:34.660Z,8.80
2018-11-03T19:13:46.677Z,8.80
2018-11-03T19:16:59.047Z,8.80
2018-11-03T19:20:14.379Z,8.80
2018-11-03T19:23:26.864Z,8.80
2018-11-03T19:26:39.156Z,8.80
2018-11-03T19:29:51.397Z,8.80
2018-11-03T19:33:03.785Z,8.80
2018-11-03T19:36:15.183Z,8.80
2018-11-03T19:39:27.321Z,8.80
2018-11-03T19:42:40.119Z,8.80
2018-11-03T19:45:52.523Z,8.80
2018-11-03T19:49:03.942Z,8.80
2018-11-03T19:52:15.680Z,8.80
2018-11-03T19:55:30.016Z,8.80
2018-11-03T19:58:41.641Z,8.80
2018-11-03T20:01:53.657Z,8.80
2018-11-03T20:05:05.718Z,8.80
2018-11-03T20:08:17.532Z,8.80
2018-11-03T20:11:30.603Z,8.80
2018-11-03T20:14:42.796Z,8.80
2018-11-03T20:17:55.158Z,8.80
2018-11-03T20:21:07.760Z,8.70
2018-11-03T20:24:20.158Z,8.70
2018-11-03T20:27:31.910Z,8.70
2018-11-03T20:30:43.812Z,8.70
2018-11-03T20:33:55.144Z,8.70
2018-11-03T20:37:08.223Z,8.70
2018-11-03T20:40:20.547Z,8.70
2018-11-03T20:43:32.542Z,8.70
2018-11-03T20:46:44.134Z,8.70
2018-11-03T20:49:56.698Z,8.70
2018-11-03T20:53:08.525Z,8.70
2018-11-03T20:56:20.411Z,8.70
2018-11-03T20:59:32.411Z,8.70
2018-11-03T21:02:45.487Z,8.80
2018-11-03T21:05:59.759Z,8.80
2018-11-03T21:09:12.967Z,8.80
2018-11-03T21:12:24.431Z,8.80
2018-11-03T21:15:35.816Z,8.80
2018-11-03T21:18:48.219Z,8.70
2018-11-03T21:22:00.842Z,8.80
2018-11-03T21:25:12.884Z,8.80
2018-11-03T21:28:24.722Z,8.80
2018-11-03T21:31:36.276Z,8.80
2018-11-03T21:34:47.949Z,8.90
2018-11-03T21:38:00.543Z,8.90
2018-11-03T21:41:13.978Z,9.00
2018-11-03T21:44:25.456Z,9.10
2018-11-03T21:47:37.655Z,9.10
2018-11-03T21:50:49.342Z,9.10
2018-11-03T21:54:01.472Z,9.10
2018-11-03T21:57:12.933Z,9.10
2018-11-03T22:00:24.317Z,9.10
2018-11-03T22:03:35.388Z,9.10
2018-11-03T22:06:47.539Z,9.10
2018-11-03T22:09:59.668Z,9.10
2018-11-03T22:13:11.542Z,9.10
2018-11-03T22:16:22.618Z,9.10
2018-11-03T22:19:37.199Z,9.10
2018-11-03T22:22:50.475Z,9.00
2018-11-03T22:26:03.986Z,9.00
2018-11-03T22:29:16.354Z,9.00
2018-11-03T22:32:28.038Z,8.90
2018-11-03T22:35:39.186Z,8.80
2018-11-03T22:38:51.367Z,8.70
2018-11-03T22:42:03.434Z,8.50
2018-11-03T22:45:16.298Z,8.50
2018-11-03T22:48:27.667Z,8.40
2018-11-03T22:51:39.489Z,8.30
2018-11-03T22:54:51.566Z,8.20
2018-11-03T22:58:26.627Z,8.00
2018-11-03T23:01:38.838Z,7.90
2018-11-03T23:04:50.288Z,7.80
2018-11-03T23:08:02.399Z,7.80
2018-11-03T23:11:14.025Z,7.70
2018-11-03T23:14:25.413Z,7.70
2018-11-03T23:17:37.162Z,7.60
2018-11-03T23:20:48.973Z,7.50
2018-11-03T23:24:00.465Z,7.40
2018-11-03T23:27:12.395Z,7.40
2018-11-03T23:30:24.255Z,7.30
2018-11-03T23:33:36.156Z,7.30
2018-11-03T23:36:48.813Z,7.20
2018-11-03T23:40:00.205Z,7.20
2018-11-03T23:43:12.279Z,7.20
2018-11-03T23:46:23.809Z,7.10
2018-11-03T23:49:35.112Z,7.10
2018-11-03T23:52:47.874Z,7.10
2018-11-03T23:55:59.609Z,7.00
2018-11-03T23:59:11.629Z,6.90
